sensor_id;sensor_type;location;lat;lon;timestamp;pressure;altitude;pressure_sealevel;temperature;humidity
25130;BME280;13308;50.860;13.664;2023-11-22T07:14:30;97682.66;;;0.69;100.00
25130;BME280;13308;50.860;13.664;2023-11-22T07:16:55;97671.25;;;0.43;100.00
25130;BME280;13308;50.860;13.664;2023-11-22T07:19:22;97664.50;;;0.49;100.00
25130;BME280;13308;50.860;13.664;2023-11-22T07:21:48;97666.22;;;0.33;100.00
25130;BME280;13308;50.860;13.664;2023-11-22T07:24:13;97661.47;;;0.30;100.00
25130;BME280;13308;50.860;13.664;2023-11-22T07:26:41;97656.31;;;0.16;100.00
25130;BME280;13308;50.860;13.664;2023-11-22T07:29:07;97662.38;;;0.13;100.00
25130;BME280;13308;50.860;13.664;2023-11-22T07:31:33;97654.28;;;0.05;100.00
25130;BME280;13308;50.860;13.664;2023-11-22T07:33:59;97659.72;;;0.05;100.00
25130;BME280;13308;50.860;13.664;2023-11-22T07:36:26;97656.28;;;-0.04;100.00
25130;BME280;13308;50.860;13.664;2023-11-22T07:38:54;97651.50;;;-0.07;100.00
25130;BME280;13308;50.860;13.664;2023-11-22T07:41:19;97665.56;;;-0.05;100.00
25130;BME280;13308;50.860;13.664;2023-11-22T07:43:44;97664.28;;;-0.08;100.00
25130;BME280;13308;50.860;13.664;2023-11-22T07:46:10;97669.56;;;-0.11;100.00
25130;BME280;13308;50.860;13.664;2023-11-22T07:48:41;97676.91;;;-0.12;100.00
25130;BME280;13308;50.860;13.664;2023-11-22T07:51:07;97693.34;;;-0.17;100.00
25130;BME280;13308;50.860;13.664;2023-11-22T07:53:34;97699.25;;;-0.14;100.00
25130;BME280;13308;50.860;13.664;2023-11-22T07:56:02;97702.75;;;-0.14;100.00
25130;BME280;13308;50.860;13.664;2023-11-22T07:58:31;97709.28;;;-0.15;100.00
25130;BME280;13308;50.860;13.664;2023-11-22T08:00:58;97715.53;;;-0.14;100.00
25130;BME280;13308;50.860;13.664;2023-11-22T08:03:23;97714.13;;;-0.20;100.00
25130;BME280;13308;50.860;13.664;2023-11-22T08:05:51;97719.81;;;-0.13;100.00
25130;BME280;13308;50.860;13.664;2023-11-22T08:08:20;97718.06;;;-0.18;100.00
25130;BME280;13308;50.860;13.664;2023-11-22T08:10:46;97728.91;;;-0.18;100.00
25130;BME280;13308;50.860;13.664;2023-11-22T08:13:13;97734.81;;;-0.16;100.00
25130;BME280;13308;50.860;13.664;2023-11-22T08:15:38;97730.31;;;-0.12;100.00
25130;BME280;13308;50.860;13.664;2023-11-22T08:18:03;97735.09;;;-0.09;100.00
25130;BME280;13308;50.860;13.664;2023-11-22T08:20:29;97729.53;;;-0.13;100.00
25130;BME280;13308;50.860;13.664;2023-11-22T08:22:56;97736.66;;;-0.08;100.00
25130;BME280;13308;50.860;13.664;2023-11-22T08:25:22;97733.50;;;-0.10;100.00
25130;BME280;13308;50.860;13.664;2023-11-22T08:27:47;97738.94;;;-0.10;100.00
25130;BME280;13308;50.860;13.664;2023-11-22T08:30:13;97735.72;;;-0.12;100.00
25130;BME280;13308;50.860;13.664;2023-11-22T08:32:44;97733.78;;;-0.03;100.00
25130;BME280;13308;50.860;13.664;2023-11-22T08:35:12;97743.03;;;-0.04;100.00
25130;BME280;13308;50.860;13.664;2023-11-22T08:37:40;97736.03;;;-0.05;100.00
25130;BME280;13308;50.860;13.664;2023-11-22T08:40:07;97740.28;;;0.04;100.00
25130;BME280;13308;50.860;13.664;2023-11-22T08:42:34;97743.31;;;0.03;100.00
25130;BME280;13308;50.860;13.664;2023-11-22T08:45:01;97742.22;;;-0.05;100.00
25130;BME280;13308;50.860;13.664;2023-11-22T08:47:27;97747.00;;;-0.02;100.00
25130;BME280;13308;50.860;13.664;2023-11-22T08:49:53;97758.34;;;-0.08;100.00
25130;BME280;13308;50.860;13.664;2023-11-22T08:52:18;97757.22;;;-0.07;100.00
25130;BME280;13308;50.860;13.664;2023-11-22T08:54:45;97755.66;;;-0.08;100.00
25130;BME280;13308;50.860;13.664;2023-11-22T08:57:11;97745.25;;;-0.06;100.00
25130;BME280;13308;50.860;13.664;2023-11-22T08:59:37;97747.38;;;-0.12;100.00
25130;BME280;13308;50.860;13.664;2023-11-22T09:02:04;97742.13;;;-0.17;100.00
25130;BME280;13308;50.860;13.664;2023-11-22T09:04:29;97740.88;;;-0.19;100.00
25130;BME280;13308;50.860;13.664;2023-11-22T09:06:56;97750.13;;;-0.20;100.00
25130;BME280;13308;50.860;13.664;2023-11-22T09:09:22;97742.91;;;-0.08;100.00
25130;BME280;13308;50.860;13.664;2023-11-22T09:11:52;97744.81;;;-0.08;100.00
25130;BME280;13308;50.860;13.664;2023-11-22T09:14:17;97755.28;;;0.02;100.00
25130;BME280;13308;50.860;13.664;2023-11-22T09:16:44;97751.31;;;-0.01;100.00
25130;BME280;13308;50.860;13.664;2023-11-22T09:19:10;97753.88;;;-0.04;100.00
25130;BME280;13308;50.860;13.664;2023-11-22T09:21:36;97749.41;;;0.00;100.00
25130;BME280;13308;50.860;13.664;2023-11-22T09:24:02;97760.38;;;0.03;100.00
25130;BME280;13308;50.860;13.664;2023-11-22T09:26:31;97754.66;;;-0.04;100.00
25130;BME280;13308;50.860;13.664;2023-11-22T09:28:56;97762.63;;;0.01;100.00
25130;BME280;13308;50.860;13.664;2023-11-22T09:31:21;97771.88;;;0.00;100.00
25130;BME280;13308;50.860;13.664;2023-11-22T09:33:46;97762.28;;;0.03;100.00
25130;BME280;13308;50.860;13.664;2023-11-22T09:36:12;97763.25;;;0.07;100.00
25130;BME280;13308;50.860;13.664;2023-11-22T09:38:38;97769.22;;;0.21;100.00
25130;BME280;13308;50.860;13.664;2023-11-22T09:41:03;97763.66;;;0.17;100.00
25130;BME280;13308;50.860;13.664;2023-11-22T09:43:29;97768.56;;;0.24;100.00
25130;BME280;13308;50.860;13.664;2023-11-22T09:45:54;97761.06;;;0.21;100.00
25130;BME280;13308;50.860;13.664;2023-11-22T09:48:21;97765.38;;;0.22;100.00
25130;BME280;13308;50.860;13.664;2023-11-22T09:51:03;97769.56;;;0.11;100.00
25130;BME280;13308;50.860;13.664;2023-11-22T09:53:32;97765.47;;;0.05;100.00
25130;BME280;13308;50.860;13.664;2023-11-22T09:55:59;97759.72;;;0.06;100.00
25130;BME280;13308;50.860;13.664;2023-11-22T09:58:26;97765.16;;;0.06;100.00
25130;BME280;13308;50.860;13.664;2023-11-22T10:00:54;97755.28;;;0.02;100.00
25130;BME280;13308;50.860;13.664;2023-11-22T10:03:20;97757.81;;;0.07;100.00
25130;BME280;13308;50.860;13.664;2023-11-22T10:05:47;97752.03;;;0.08;100.00
25130;BME280;13308;50.860;13.664;2023-11-22T10:08:12;97757.00;;;0.06;100.00
25130;BME280;13308;50.860;13.664;2023-11-22T10:10:38;97743.59;;;0.10;100.00
25130;BME280;13308;50.860;13.664;2023-11-22T10:13:05;97757.78;;;0.15;100.00
25130;BME280;13308;50.860;13.664;2023-11-22T10:15:30;97755.84;;;0.16;100.00
25130;BME280;13308;50.860;13.664;2023-11-22T10:17:58;97762.97;;;0.20;100.00
25130;BME280;13308;50.860;13.664;2023-11-22T10:23:01;97772.28;;;0.11;100.00
25130;BME280;13308;50.860;13.664;2023-11-22T10:25:27;97774.81;;;0.16;100.00
25130;BME280;13308;50.860;13.664;2023-11-22T10:27:54;97784.34;;;0.22;100.00
25130;BME280;13308;50.860;13.664;2023-11-22T10:30:20;97773.00;;;0.28;100.00
25130;BME280;13308;50.860;13.664;2023-11-22T10:32:45;97761.34;;;0.28;100.00
25130;BME280;13308;50.860;13.664;2023-11-22T10:35:11;97759.25;;;0.33;100.00
25130;BME280;13308;50.860;13.664;2023-11-22T10:37:39;97759.84;;;0.39;100.00
25130;BME280;13308;50.860;13.664;2023-11-22T10:40:06;97759.56;;;0.32;100.00
25130;BME280;13308;50.860;13.664;2023-11-22T10:42:33;97753.47;;;0.35;100.00
25130;BME280;13308;50.860;13.664;2023-11-22T10:45:00;97746.00;;;0.32;100.00
25130;BME280;13308;50.860;13.664;2023-11-22T10:47:29;97738.88;;;0.27;100.00
25130;BME280;13308;50.860;13.664;2023-11-22T10:49:55;97739.44;;;0.33;100.00
25130;BME280;13308;50.860;13.664;2023-11-22T10:52:26;97737.13;;;0.23;100.00
25130;BME280;13308;50.860;13.664;2023-11-22T10:54:55;97741.75;;;0.22;100.00
25130;BME280;13308;50.860;13.664;2023-11-22T10:57:31;97749.72;;;0.27;100.00
25130;BME280;13308;50.860;13.664;2023-11-22T11:00:00;97747.00;;;0.27;100.00
25130;BME280;13308;50.860;13.664;2023-11-22T11:02:32;97743.75;;;0.34;100.00
25130;BME280;13308;50.860;13.664;2023-11-22T11:05:03;97742.16;;;0.33;100.00
25130;BME280;13308;50.860;13.664;2023-11-22T11:07:40;97741.03;;;0.34;100.00
25130;BME280;13308;50.860;13.664;2023-11-22T11:10:07;97755.53;;;0.38;100.00
25130;BME280;13308;50.860;13.664;2023-11-22T11:12:33;97760.50;;;0.36;100.00
25130;BME280;13308;50.860;13.664;2023-11-22T11:14:58;97762.28;;;0.32;100.00
25130;BME280;13308;50.860;13.664;2023-11-22T11:17:25;97777.28;;;0.29;100.00
25130;BME280;13308;50.860;13.664;2023-11-22T11:19:50;97793.06;;;0.36;100.00
25130;BME280;13308;50.860;13.664;2023-11-22T11:22:16;97798.94;;;0.38;100.00
25130;BME280;13308;50.860;13.664;2023-11-22T11:24:47;97807.41;;;0.36;100.00
25130;BME280;13308;50.860;13.664;2023-11-22T11:27:15;97811.75;;;0.29;100.00
25130;BME280;13308;50.860;13.664;2023-11-22T11:29:40;97816.41;;;0.28;100.00
25130;BME280;13308;50.860;13.664;2023-11-22T11:32:30;97814.00;;;0.27;100.00
25130;BME280;13308;50.860;13.664;2023-11-22T11:34:57;97813.06;;;0.23;100.00
25130;BME280;13308;50.860;13.664;2023-11-22T11:37:25;97815.63;;;0.19;100.00
25130;BME280;13308;50.860;13.664;2023-11-22T11:39:50;97803.16;;;0.27;100.00
25130;BME280;13308;50.860;13.664;2023-11-22T11:42:15;97798.41;;;0.24;100.00
25130;BME280;13308;50.860;13.664;2023-11-22T11:47:22;97797.28;;;0.25;100.00
25130;BME280;13308;50.860;13.664;2023-11-22T11:49:49;97799.81;;;0.30;100.00
25130;BME280;13308;50.860;13.664;2023-11-22T11:52:15;97799.31;;;0.28;100.00
25130;BME280;13308;50.860;13.664;2023-11-22T11:54:41;97795.47;;;0.29;100.00
25130;BME280;13308;50.860;13.664;2023-11-22T11:57:06;97798.41;;;0.24;100.00
25130;BME280;13308;50.860;13.664;2023-11-22T11:59:31;97806.31;;;0.29;100.00
25130;BME280;13308;50.860;13.664;2023-11-22T12:01:59;97807.28;;;0.33;100.00
25130;BME280;13308;50.860;13.664;2023-11-22T12:04:24;97793.63;;;0.21;100.00
25130;BME280;13308;50.860;13.664;2023-11-22T12:06:51;97793.47;;;0.17;100.00
25130;BME280;13308;50.860;13.664;2023-11-22T12:09:24;97794.59;;;0.16;100.00
25130;BME280;13308;50.860;13.664;2023-11-22T12:11:53;97796.91;;;0.06;100.00
25130;BME280;13308;50.860;13.664;2023-11-22T12:14:22;97803.06;;;0.15;100.00
25130;BME280;13308;50.860;13.664;2023-11-22T12:16:50;97800.34;;;0.15;100.00
25130;BME280;13308;50.860;13.664;2023-11-22T12:19:27;97798.59;;;0.19;100.00
25130;BME280;13308;50.860;13.664;2023-11-22T12:21:54;97800.34;;;0.15;100.00
25130;BME280;13308;50.860;13.664;2023-11-22T12:24:20;97790.81;;;0.09;100.00
25130;BME280;13308;50.860;13.664;2023-11-22T12:26:46;97784.88;;;0.15;100.00
25130;BME280;13308;50.860;13.664;2023-11-22T12:29:12;97792.03;;;0.20;100.00
25130;BME280;13308;50.860;13.664;2023-11-22T12:31:44;97782.31;;;0.19;100.00
25130;BME280;13308;50.860;13.664;2023-11-22T12:34:14;97769.56;;;0.11;100.00
25130;BME280;13308;50.860;13.664;2023-11-22T12:36:41;97768.00;;;0.10;100.00
25130;BME280;13308;50.860;13.664;2023-11-22T12:39:10;97772.00;;;0.04;100.00
25130;BME280;13308;50.860;13.664;2023-11-22T12:41:48;97779.31;;;0.12;100.00
25130;BME280;13308;50.860;13.664;2023-11-22T12:44:16;97766.41;;;0.09;100.00
25130;BME280;13308;50.860;13.664;2023-11-22T12:46:51;97752.72;;;0.05;100.00
25130;BME280;13308;50.860;13.664;2023-11-22T12:49:25;97745.84;;;0.08;100.00
25130;BME280;13308;50.860;13.664;2023-11-22T12:51:52;97744.84;;;-0.17;100.00
25130;BME280;13308;50.860;13.664;2023-11-22T12:54:18;97749.06;;;-0.36;100.00
25130;BME280;13308;50.860;13.664;2023-11-22T12:56:50;97747.47;;;-0.28;100.00
25130;BME280;13308;50.860;13.664;2023-11-22T12:59:16;97741.81;;;-0.15;100.00
25130;BME280;13308;50.860;13.664;2023-11-22T13:01:41;97738.94;;;-0.10;100.00
25130;BME280;13308;50.860;13.664;2023-11-22T13:04:07;97735.72;;;-0.12;100.00
25130;BME280;13308;50.860;13.664;2023-11-22T13:06:33;97741.47;;;-0.05;100.00
25130;BME280;13308;50.860;13.664;2023-11-22T13:08:58;97746.88;;;-0.05;100.00
25130;BME280;13308;50.860;13.664;2023-11-22T13:11:24;97740.69;;;-0.14;100.00
25130;BME280;13308;50.860;13.664;2023-11-22T13:13:49;97734.16;;;-0.13;100.00
25130;BME280;13308;50.860;13.664;2023-11-22T13:16:15;97737.81;;;-0.09;100.00
25130;BME280;13308;50.860;13.664;2023-11-22T13:18:44;97733.66;;;-0.07;100.00
25130;BME280;13308;50.860;13.664;2023-11-22T13:21:09;97732.09;;;-0.16;100.00
25130;BME280;13308;50.860;13.664;2023-11-22T13:23:36;97730.38;;;-0.20;100.00
25130;BME280;13308;50.860;13.664;2023-11-22T13:26:01;97729.38;;;-0.16;100.00
25130;BME280;13308;50.860;13.664;2023-11-22T13:28:27;97735.16;;;-0.26;100.00
25130;BME280;13308;50.860;13.664;2023-11-22T13:30:52;97736.19;;;-0.39;100.00
25130;BME280;13308;50.860;13.664;2023-11-22T13:33:19;97737.41;;;-0.28;100.00
25130;BME280;13308;50.860;13.664;2023-11-22T13:35:44;97747.16;;;-0.35;100.00
25130;BME280;13308;50.860;13.664;2023-11-22T13:38:10;97748.91;;;-0.31;100.00
25130;BME280;13308;50.860;13.664;2023-11-22T13:40:39;97749.03;;;-0.28;100.00
25130;BME280;13308;50.860;13.664;2023-11-22T13:43:06;97752.72;;;-0.32;100.00
25130;BME280;13308;50.860;13.664;2023-11-22T13:45:34;97750.19;;;-0.37;100.00
25130;BME280;13308;50.860;13.664;2023-11-22T13:48:01;97753.09;;;-0.42;100.00
25130;BME280;13308;50.860;13.664;2023-11-22T13:50:29;97756.13;;;-0.43;100.00
25130;BME280;13308;50.860;13.664;2023-11-22T13:52:56;97762.84;;;-0.49;100.00
25130;BME280;13308;50.860;13.664;2023-11-22T13:55:22;97777.97;;;-0.40;100.00
25130;BME280;13308;50.860;13.664;2023-11-22T13:57:56;97789.72;;;-0.36;100.00
25130;BME280;13308;50.860;13.664;2023-11-22T14:00:24;97784.16;;;-0.39;100.00
25130;BME280;13308;50.860;13.664;2023-11-22T14:02:56;97767.75;;;-0.43;100.00
25130;BME280;13308;50.860;13.664;2023-11-22T14:05:25;97762.69;;;-0.44;100.00
25130;BME280;13308;50.860;13.664;2023-11-22T14:07:52;97762.47;;;-0.39;100.00
25130;BME280;13308;50.860;13.664;2023-11-22T14:10:18;97772.81;;;-0.33;100.00
25130;BME280;13308;50.860;13.664;2023-11-22T14:12:44;97780.78;;;-0.28;100.00
25130;BME280;13308;50.860;13.664;2023-11-22T14:15:11;97791.31;;;-0.26;100.00
25130;BME280;13308;50.860;13.664;2023-11-22T14:17:36;97790.97;;;-0.25;100.00
25130;BME280;13308;50.860;13.664;2023-11-22T14:20:05;97783.31;;;-0.23;100.00
25130;BME280;13308;50.860;13.664;2023-11-22T14:22:32;97783.81;;;-0.29;100.00
25130;BME280;13308;50.860;13.664;2023-11-22T14:24:57;97778.38;;;-0.29;100.00
25130;BME280;13308;50.860;13.664;2023-11-22T14:27:23;97767.88;;;-0.31;100.00
25130;BME280;13308;50.860;13.664;2023-11-22T14:29:48;97748.13;;;-0.31;100.00
25130;BME280;13308;50.860;13.664;2023-11-22T14:32:15;97746.22;;;-0.39;100.00
25130;BME280;13308;50.860;13.664;2023-11-22T14:34:41;97756.28;;;-0.40;100.00
25130;BME280;13308;50.860;13.664;2023-11-22T14:37:09;97758.00;;;-0.35;100.00
25130;BME280;13308;50.860;13.664;2023-11-22T14:39:35;97750.44;;;-0.50;100.00
25130;BME280;13308;50.860;13.664;2023-11-22T14:42:00;97762.50;;;-0.48;100.00
25130;BME280;13308;50.860;13.664;2023-11-22T14:44:26;97761.88;;;-0.45;100.00
25130;BME280;13308;50.860;13.664;2023-11-22T14:46:52;97755.34;;;-0.52;100.00
25130;BME280;13308;50.860;13.664;2023-11-22T14:49:17;97742.34;;;-0.59;100.00
25130;BME280;13308;50.860;13.664;2023-11-22T14:51:43;97735.00;;;-0.67;100.00
25130;BME280;13308;50.860;13.664;2023-11-22T14:54:09;97729.47;;;-0.79;100.00
25130;BME280;13308;50.860;13.664;2023-11-22T14:56:34;97725.75;;;-0.66;100.00
25130;BME280;13308;50.860;13.664;2023-11-22T14:59:00;97732.47;;;-0.72;100.00
25130;BME280;13308;50.860;13.664;2023-11-22T15:01:26;97723.88;;;-0.65;100.00
25130;BME280;13308;50.860;13.664;2023-11-22T15:03:52;97716.69;;;-0.61;100.00
25130;BME280;13308;50.860;13.664;2023-11-22T15:06:22;97718.13;;;-0.64;100.00
25130;BME280;13308;50.860;13.664;2023-11-22T15:08:47;97730.41;;;-0.66;100.00
25130;BME280;13308;50.860;13.664;2023-11-22T15:11:14;97728.66;;;-0.71;100.00
25130;BME280;13308;50.860;13.664;2023-11-22T15:13:44;97738.38;;;-0.70;100.00
25130;BME280;13308;50.860;13.664;2023-11-22T15:16:10;97753.50;;;-0.69;100.00
25130;BME280;13308;50.860;13.664;2023-11-22T15:18:41;97753.81;;;-0.62;100.00
25130;BME280;13308;50.860;13.664;2023-11-22T15:21:06;97765.94;;;-0.68;100.00
25130;BME280;13308;50.860;13.664;2023-11-22T15:23:32;97772.75;;;-0.62;100.00
25130;BME280;13308;50.860;13.664;2023-11-22T15:25:57;97782.47;;;-0.61;100.00
25130;BME280;13308;50.860;13.664;2023-11-22T15:28:24;97788.53;;;-0.64;100.00
25130;BME280;13308;50.860;13.664;2023-11-22T15:30:50;97785.53;;;-0.71;100.00
25130;BME280;13308;50.860;13.664;2023-11-22T15:33:22;97786.47;;;-0.67;100.00
25130;BME280;13308;50.860;13.664;2023-11-22T15:35:47;97784.25;;;-0.65;100.00
25130;BME280;13308;50.860;13.664;2023-11-22T15:38:13;97773.91;;;-0.80;100.00
25130;BME280;13308;50.860;13.664;2023-11-22T15:40:38;97784.41;;;-0.70;100.00
25130;BME280;13308;50.860;13.664;2023-11-22T15:43:04;97775.16;;;-0.69;100.00
25130;BME280;13308;50.860;13.664;2023-11-22T15:45:30;97780.13;;;-0.71;100.00
25130;BME280;13308;50.860;13.664;2023-11-22T15:47:57;97766.88;;;-0.64;100.00
25130;BME280;13308;50.860;13.664;2023-11-22T15:50:22;97773.88;;;-0.63;100.00
25130;BME280;13308;50.860;13.664;2023-11-22T15:52:47;97769.47;;;-0.76;100.00
25130;BME280;13308;50.860;13.664;2023-11-22T15:55:13;97757.50;;;-0.75;100.00
25130;BME280;13308;50.860;13.664;2023-11-22T15:57:38;97763.38;;;-0.73;100.00
25130;BME280;13308;50.860;13.664;2023-11-22T16:00:04;97760.22;;;-0.75;100.00
25130;BME280;13308;50.860;13.664;2023-11-22T16:02:37;97771.34;;;-0.68;100.00
25130;BME280;13308;50.860;13.664;2023-11-22T16:05:02;97773.72;;;-0.66;100.00
25130;BME280;13308;50.860;13.664;2023-11-22T16:07:29;97765.78;;;-0.71;100.00
25130;BME280;13308;50.860;13.664;2023-11-22T16:09:54;97768.16;;;-0.70;100.00
25130;BME280;13308;50.860;13.664;2023-11-22T16:12:19;97772.94;;;-0.67;100.00
25130;BME280;13308;50.860;13.664;2023-11-22T16:14:46;97767.03;;;-0.60;100.00
25130;BME280;13308;50.860;13.664;2023-11-22T16:17:11;97764.03;;;-0.76;100.00
25130;BME280;13308;50.860;13.664;2023-11-22T16:19:37;97768.63;;;-0.68;100.00
25130;BME280;13308;50.860;13.664;2023-11-22T16:22:03;97754.28;;;-0.68;100.00
25130;BME280;13308;50.860;13.664;2023-11-22T16:24:28;97762.72;;;-0.61;100.00
25130;BME280;13308;50.860;13.664;2023-11-22T16:26:54;97767.03;;;-0.60;100.00
25130;BME280;13308;50.860;13.664;2023-11-22T16:29:21;97766.22;;;-0.61;100.00
25130;BME280;13308;50.860;13.664;2023-11-22T16:31:46;97785.81;;;-0.55;100.00
25130;BME280;13308;50.860;13.664;2023-11-22T16:34:11;97785.81;;;-0.55;100.00
25130;BME280;13308;50.860;13.664;2023-11-22T16:36:37;97790.88;;;-0.45;100.00
25130;BME280;13308;50.860;13.664;2023-11-22T16:39:03;97775.59;;;-0.50;100.00
25130;BME280;13308;50.860;13.664;2023-11-22T16:41:28;97777.22;;;-0.66;100.00
25130;BME280;13308;50.860;13.664;2023-11-22T16:43:53;97780.88;;;-0.62;100.00
25130;BME280;13308;50.860;13.664;2023-11-22T16:46:19;97786.00;;;-0.69;100.00
25130;BME280;13308;50.860;13.664;2023-11-22T16:48:44;97781.53;;;-0.65;100.00
25130;BME280;13308;50.860;13.664;2023-11-22T16:51:11;97780.09;;;-0.62;100.00
25130;BME280;13308;50.860;13.664;2023-11-22T16:53:38;97789.00;;;-0.62;100.00
25130;BME280;13308;50.860;13.664;2023-11-22T16:56:05;97788.25;;;-0.71;100.00
25130;BME280;13308;50.860;13.664;2023-11-22T16:58:31;97779.47;;;-0.68;100.00
25130;BME280;13308;50.860;13.664;2023-11-22T17:00:56;97779.94;;;-0.66;100.00
25130;BME280;13308;50.860;13.664;2023-11-22T17:03:22;97777.88;;;-0.69;100.00
25130;BME280;13308;50.860;13.664;2023-11-22T17:05:47;97772.31;;;-0.64;100.00
25130;BME280;13308;50.860;13.664;2023-11-22T17:08:15;97762.38;;;-0.60;100.00
25130;BME280;13308;50.860;13.664;2023-11-22T17:10:40;97770.84;;;-0.53;100.00
25130;BME280;13308;50.860;13.664;2023-11-22T17:13:05;97779.88;;;-0.49;100.00
25130;BME280;13308;50.860;13.664;2023-11-22T17:15:31;97783.53;;;-0.45;100.00
25130;BME280;13308;50.860;13.664;2023-11-22T17:17:58;97779.41;;;-0.42;100.00
25130;BME280;13308;50.860;13.664;2023-11-22T17:20:23;97767.44;;;-0.41;100.00
25130;BME280;13308;50.860;13.664;2023-11-22T17:22:48;97767.75;;;-0.43;100.00
25130;BME280;13308;50.860;13.664;2023-11-22T17:25:14;97763.44;;;-0.35;100.00
25130;BME280;13308;50.860;13.664;2023-11-22T17:27:41;97776.13;;;-0.28;100.00
25130;BME280;13308;50.860;13.664;2023-11-22T17:30:07;97770.09;;;-0.24;100.00
25130;BME280;13308;50.860;13.664;2023-11-22T17:32:33;97754.59;;;-0.24;100.00
25130;BME280;13308;50.860;13.664;2023-11-22T17:34:59;97746.16;;;-0.22;100.00
25130;BME280;13308;50.860;13.664;2023-11-22T17:37:24;97744.72;;;-0.20;100.00
25130;BME280;13308;50.860;13.664;2023-11-22T17:39:50;97758.44;;;-0.25;100.00
25130;BME280;13308;50.860;13.664;2023-11-22T17:42:20;97759.69;;;-0.22;100.00
25130;BME280;13308;50.860;13.664;2023-11-22T17:44:45;97752.19;;;-0.17;100.00
25130;BME280;13308;50.860;13.664;2023-11-22T17:47:15;97750.13;;;-0.20;100.00
25130;BME280;13308;50.860;13.664;2023-11-22T17:49:40;97736.75;;;-0.25;100.00
25130;BME280;13308;50.860;13.664;2023-11-22T17:52:06;97738.34;;;-0.24;100.00
25130;BME280;13308;50.860;13.664;2023-11-22T17:54:31;97731.47;;;-0.22;100.00
25130;BME280;13308;50.860;13.664;2023-11-22T17:56:57;97734.00;;;-0.17;100.00
25130;BME280;13308;50.860;13.664;2023-11-22T17:59:22;97724.75;;;-0.16;100.00
25130;BME280;13308;50.860;13.664;2023-11-22T18:01:47;97727.13;;;-0.14;100.00
25130;BME280;13308;50.860;13.664;2023-11-22T18:04:13;97730.97;;;-0.15;100.00
25130;BME280;13308;50.860;13.664;2023-11-22T18:06:38;97722.53;;;-0.13;100.00
25130;BME280;13308;50.860;13.664;2023-11-22T18:09:06;97730.47;;;-0.08;100.00
25130;BME280;13308;50.860;13.664;2023-11-22T18:11:31;97732.69;;;-0.11;100.00
25130;BME280;13308;50.860;13.664;2023-11-22T18:13:56;97732.84;;;-0.07;100.00
25130;BME280;13308;50.860;13.664;2023-11-22T18:16:26;97736.66;;;-0.08;100.00
25130;BME280;13308;50.860;13.664;2023-11-22T18:18:52;97736.22;;;-0.10;100.00
25130;BME280;13308;50.860;13.664;2023-11-22T18:21:17;97733.50;;;-0.10;100.00
25130;BME280;13308;50.860;13.664;2023-11-22T18:23:43;97743.69;;;-0.07;100.00
25130;BME280;13308;50.860;13.664;2023-11-22T18:26:11;97736.81;;;-0.05;100.00
25130;BME280;13308;50.860;13.664;2023-11-22T18:28:37;97733.19;;;-0.08;100.00
25130;BME280;13308;50.860;13.664;2023-11-22T18:31:03;97743.03;;;-0.04;100.00
25130;BME280;13308;50.860;13.664;2023-11-22T18:33:30;97744.47;;;-0.07;100.00
25130;BME280;13308;50.860;13.664;2023-11-22T18:35:55;97733.47;;;-0.02;100.00
25130;BME280;13308;50.860;13.664;2023-11-22T18:38:22;97722.94;;;-0.03;100.00
25130;BME280;13308;50.860;13.664;2023-11-22T18:40:49;97707.31;;;-0.06;100.00
25130;BME280;13308;50.860;13.664;2023-11-22T18:43:15;97714.47;;;-0.02;100.00
25130;BME280;13308;50.860;13.664;2023-11-22T18:45:42;97711.44;;;0.00;100.00
25130;BME280;13308;50.860;13.664;2023-11-22T18:48:14;97708.75;;;0.00;100.00
25130;BME280;13308;50.860;13.664;2023-11-22T18:50:40;97691.25;;;-0.11;100.00
25130;BME280;13308;50.860;13.664;2023-11-22T18:53:05;97689.13;;;-0.06;100.00
25130;BME280;13308;50.860;13.664;2023-11-22T18:55:30;97677.16;;;-0.05;100.00
25130;BME280;13308;50.860;13.664;2023-11-22T18:57:56;97665.41;;;-0.08;100.00
25130;BME280;13308;50.860;13.664;2023-11-22T19:00:22;97661.91;;;-0.09;100.00
25130;BME280;13308;50.860;13.664;2023-11-22T19:02:47;97656.47;;;-0.09;100.00
25130;BME280;13308;50.860;13.664;2023-11-22T19:05:13;97647.09;;;-0.12;100.00
25130;BME280;13308;50.860;13.664;2023-11-22T19:07:38;97647.28;;;-0.17;100.00
25130;BME280;13308;50.860;13.664;2023-11-22T19:10:07;97658.38;;;-0.10;100.00
25130;BME280;13308;50.860;13.664;2023-11-22T19:12:32;97659.63;;;-0.07;100.00
25130;BME280;13308;50.860;13.664;2023-11-22T19:14:58;97665.56;;;-0.05;100.00
25130;BME280;13308;50.860;13.664;2023-11-22T19:17:23;97665.56;;;-0.05;100.00
25130;BME280;13308;50.860;13.664;2023-11-22T19:19:48;97654.03;;;-0.02;100.00
25130;BME280;13308;50.860;13.664;2023-11-22T19:22:14;97646.22;;;-0.04;100.00
25130;BME280;13308;50.860;13.664;2023-11-22T19:24:42;97633.16;;;-0.02;100.00
25130;BME280;13308;50.860;13.664;2023-11-22T19:27:08;97627.72;;;-0.02;100.00
25130;BME280;13308;50.860;13.664;2023-11-22T19:29:37;97641.88;;;0.04;100.00
25130;BME280;13308;50.860;13.664;2023-11-22T19:32:04;97657.50;;;0.07;100.00
